createdAt,value
2019-03-06T00:00:08.550Z,3.50
2019-03-06T00:02:35.373Z,3.37
2019-03-06T00:05:02.759Z,3.30
2019-03-06T00:07:29.757Z,2.70
2019-03-06T00:09:56.768Z,2.93
2019-03-06T00:12:23.888Z,2.80
2019-03-06T00:14:50.796Z,2.97
2019-03-06T00:17:17.761Z,3.20
2019-03-06T00:19:44.567Z,2.87
2019-03-06T00:22:11.523Z,2.90
2019-03-06T00:24:38.438Z,2.83
2019-03-06T00:27:05.704Z,2.87
2019-03-06T00:29:32.766Z,2.50
2019-03-06T00:31:59.771Z,2.97
2019-03-06T00:34:26.585Z,3.43
2019-03-06T00:36:53.440Z,3.40
2019-03-06T00:39:20.558Z,2.90
2019-03-06T00:41:49.698Z,3.43
2019-03-06T00:44:16.749Z,3.23
2019-03-06T00:46:43.836Z,3.27
2019-03-06T00:49:10.750Z,3.40
2019-03-06T00:51:37.733Z,3.40
2019-03-06T00:54:04.855Z,3.40
2019-03-06T00:56:31.855Z,3.37
2019-03-06T00:58:58.817Z,3.60
2019-03-06T01:01:25.744Z,3.20
2019-03-06T01:03:52.874Z,3.80
2019-03-06T01:06:19.855Z,4.10
2019-03-06T01:08:47.076Z,3.57
2019-03-06T01:11:14.123Z,3.30
2019-03-06T01:13:41.011Z,3.53
2019-03-06T01:16:07.930Z,3.63
2019-03-06T01:18:34.850Z,4.10
2019-03-06T01:21:01.724Z,3.67
2019-03-06T01:23:29.195Z,4.20
2019-03-06T01:25:56.098Z,3.40
2019-03-06T01:28:23.110Z,3.73
2019-03-06T01:30:50.091Z,4.13
2019-03-06T01:33:35.270Z,4.70
2019-03-06T01:36:20.336Z,5.00
2019-03-06T01:39:03.737Z,5.27
2019-03-06T01:41:36.824Z,5.77
2019-03-06T01:44:08.819Z,5.30
2019-03-06T01:46:35.882Z,5.33
2019-03-06T01:49:03.018Z,4.97
2019-03-06T01:51:30.076Z,6.03
2019-03-06T01:53:56.899Z,5.63
2019-03-06T01:56:23.967Z,6.27
2019-03-06T01:58:50.937Z,7.77
2019-03-06T02:01:17.960Z,6.43
2019-03-06T02:03:44.886Z,6.53
2019-03-06T02:06:11.847Z,7.30
2019-03-06T02:08:38.894Z,6.43
2019-03-06T02:11:05.987Z,7.07
2019-03-06T02:13:32.983Z,6.83
2019-03-06T02:16:00.007Z,7.07
2019-03-06T02:18:27.063Z,6.27
2019-03-06T02:20:54.316Z,6.30
2019-03-06T02:23:21.250Z,6.27
2019-03-06T02:25:48.154Z,5.93
2019-03-06T02:28:15.121Z,6.00
2019-03-06T02:30:42.141Z,6.83
2019-03-06T02:33:09.269Z,7.07
2019-03-06T02:35:36.513Z,7.50
2019-03-06T02:38:03.554Z,6.67
2019-03-06T02:40:30.596Z,7.27
2019-03-06T02:42:57.556Z,7.40
2019-03-06T02:45:24.566Z,7.10
2019-03-06T02:47:51.601Z,7.80
2019-03-06T02:50:19.262Z,7.57
2019-03-06T02:52:46.184Z,7.53
2019-03-06T02:55:15.631Z,7.10
2019-03-06T02:57:49.001Z,8.43
2019-03-06T03:00:54.546Z,7.87
2019-03-06T03:03:27.648Z,7.97
2019-03-06T03:05:59.576Z,8.23
2019-03-06T03:08:26.778Z,7.63
2019-03-06T03:10:53.837Z,7.57
2019-03-06T03:13:20.754Z,8.23
2019-03-06T03:15:47.609Z,8.17
2019-03-06T03:18:14.679Z,8.97
2019-03-06T03:20:41.607Z,10.03
2019-03-06T03:23:09.000Z,9.70
2019-03-06T03:25:36.053Z,9.30
2019-03-06T03:28:03.054Z,9.53
2019-03-06T03:30:30.051Z,9.80
2019-03-06T03:32:56.922Z,9.87
2019-03-06T03:35:24.028Z,9.90
2019-03-06T03:37:50.930Z,9.53
2019-03-06T03:40:17.983Z,10.00
2019-03-06T03:42:45.014Z,10.13
2019-03-06T03:45:12.284Z,9.20
2019-03-06T03:47:39.280Z,9.87
2019-03-06T03:50:07.482Z,9.70
2019-03-06T03:52:34.494Z,10.27
2019-03-06T03:55:01.692Z,11.03
2019-03-06T03:57:29.231Z,11.10
2019-03-06T03:59:56.364Z,10.83
2019-03-06T04:02:23.337Z,11.63
2019-03-06T04:04:50.360Z,11.53
2019-03-06T04:07:17.292Z,12.03
2019-03-06T04:09:44.241Z,11.53
2019-03-06T04:12:11.164Z,12.53
2019-03-06T04:14:38.212Z,11.53
2019-03-06T04:17:05.298Z,11.83
2019-03-06T04:19:32.223Z,11.60
2019-03-06T04:21:59.152Z,11.37
2019-03-06T04:24:26.441Z,11.93
2019-03-06T04:26:53.438Z,12.33
2019-03-06T04:29:20.454Z,11.80
2019-03-06T04:31:47.531Z,13.40
2019-03-06T04:34:14.456Z,12.73
2019-03-06T04:36:41.379Z,13.10
2019-03-06T04:39:08.652Z,13.50
2019-03-06T04:41:35.476Z,14.63
2019-03-06T04:44:02.577Z,13.63
2019-03-06T04:46:29.546Z,13.47
2019-03-06T04:48:56.483Z,14.57
2019-03-06T04:51:23.499Z,13.80
2019-03-06T04:53:50.671Z,14.13
2019-03-06T04:56:17.517Z,13.73
2019-03-06T04:58:44.556Z,13.50
2019-03-06T05:01:11.564Z,13.50
2019-03-06T05:03:38.586Z,13.60
2019-03-06T05:06:05.639Z,14.70
2019-03-06T05:08:32.770Z,14.27
2019-03-06T05:10:59.604Z,14.40
2019-03-06T05:13:26.542Z,13.53
2019-03-06T05:15:53.590Z,14.50
2019-03-06T05:18:31.240Z,14.20
2019-03-06T05:20:58.535Z,13.33
2019-03-06T05:23:25.504Z,13.23
2019-03-06T05:25:52.370Z,13.67
2019-03-06T05:28:19.538Z,13.90
2019-03-06T05:30:46.492Z,13.47
2019-03-06T05:33:13.633Z,13.47
2019-03-06T05:36:27.362Z,14.07
2019-03-06T05:39:10.884Z,12.10
2019-03-06T05:41:38.386Z,13.37
2019-03-06T05:44:05.530Z,13.87
2019-03-06T05:46:32.545Z,13.10
2019-03-06T05:48:59.524Z,12.67
2019-03-06T05:51:26.437Z,12.10
2019-03-06T05:53:53.243Z,12.33
2019-03-06T05:56:20.246Z,12.43
2019-03-06T05:58:47.108Z,12.80
2019-03-06T06:01:13.978Z,13.27
2019-03-06T06:03:40.967Z,12.70
2019-03-06T06:06:08.089Z,13.37
2019-03-06T06:08:35.016Z,12.33
2019-03-06T06:11:02.225Z,11.83
2019-03-06T06:13:30.955Z,12.13
2019-03-06T06:15:58.248Z,12.33
2019-03-06T06:18:25.804Z,12.30
2019-03-06T06:21:06.039Z,13.47
2019-03-06T06:23:42.265Z,11.93
2019-03-06T06:26:09.181Z,10.60
2019-03-06T06:28:36.497Z,11.90
2019-03-06T06:31:03.558Z,10.40
2019-03-06T06:33:30.365Z,11.20
2019-03-06T06:35:57.287Z,11.93
2019-03-06T06:38:24.368Z,11.43
2019-03-06T06:40:51.172Z,9.37
2019-03-06T06:43:18.206Z,11.47
2019-03-06T06:45:45.277Z,12.27
2019-03-06T06:48:14.438Z,12.43
2019-03-06T06:50:47.418Z,12.03
2019-03-06T06:53:35.989Z,13.13
2019-03-06T06:56:28.484Z,12.07
2019-03-06T06:59:21.615Z,11.57
2019-03-06T07:02:41.314Z,11.30
2019-03-06T07:05:33.005Z,12.40
2019-03-06T07:08:05.705Z,12.77
2019-03-06T07:10:38.854Z,11.93
2019-03-06T07:13:31.362Z,11.50
2019-03-06T07:16:10.082Z,11.43
2019-03-06T07:19:05.515Z,10.43
2019-03-06T07:21:52.282Z,10.30
2019-03-06T07:24:41.617Z,10.33
2019-03-06T07:27:31.157Z,9.67
2019-03-06T07:30:07.846Z,9.77
2019-03-06T07:32:47.643Z,9.47
2019-03-06T07:36:11.517Z,8.60
2019-03-06T07:38:38.418Z,8.37
2019-03-06T07:41:13.819Z,8.77
2019-03-06T07:44:00.385Z,8.10
2019-03-06T07:46:56.110Z,8.00
2019-03-06T07:49:44.869Z,7.77
2019-03-06T07:52:13.471Z,8.30
2019-03-06T07:54:58.722Z,7.57
2019-03-06T07:57:45.434Z,7.50
2019-03-06T08:00:18.292Z,7.47
2019-03-06T08:03:04.512Z,6.40
2019-03-06T08:05:31.518Z,7.00
2019-03-06T08:07:58.660Z,6.53
2019-03-06T08:10:28.426Z,6.63
2019-03-06T08:13:07.138Z,6.60
2019-03-06T08:15:50.733Z,5.67
2019-03-06T08:18:28.554Z,6.20
2019-03-06T08:21:27.156Z,5.70
2019-03-06T08:24:03.393Z,5.80
2019-03-06T08:26:30.355Z,5.87
2019-03-06T08:28:57.398Z,5.57
2019-03-06T08:31:30.802Z,5.77
2019-03-06T08:33:57.862Z,7.03
2019-03-06T08:36:24.770Z,5.40
2019-03-06T08:38:51.593Z,6.33
2019-03-06T08:41:18.943Z,6.20
2019-03-06T08:43:45.880Z,6.63
2019-03-06T08:46:35.241Z,7.30
2019-03-06T08:49:41.277Z,7.83
2019-03-06T08:52:16.818Z,8.77
2019-03-06T08:55:21.656Z,9.00
2019-03-06T08:58:06.826Z,9.50
2019-03-06T09:00:48.486Z,9.10
2019-03-06T09:03:23.765Z,8.50
2019-03-06T09:06:03.049Z,9.33
2019-03-06T09:08:43.346Z,9.63
2019-03-06T09:11:32.883Z,10.30
2019-03-06T09:14:06.529Z,10.03
2019-03-06T09:16:51.153Z,12.00
2019-03-06T09:19:35.661Z,11.37
2019-03-06T09:22:17.498Z,10.17
2019-03-06T09:25:13.452Z,10.43
2019-03-06T09:27:46.912Z,11.20
2019-03-06T09:30:20.847Z,9.57
2019-03-06T09:33:10.428Z,10.27
2019-03-06T09:35:46.366Z,9.33
2019-03-06T09:38:31.272Z,9.70
2019-03-06T09:41:25.412Z,9.53
2019-03-06T09:44:14.962Z,8.10
2019-03-06T09:46:57.166Z,7.87
2019-03-06T09:49:52.592Z,7.20
2019-03-06T09:52:41.897Z,6.67
2019-03-06T09:55:17.442Z,5.80
2019-03-06T09:58:01.639Z,5.50
2019-03-06T10:01:06.713Z,4.73
2019-03-06T10:03:52.060Z,4.80
2019-03-06T10:06:33.866Z,5.00
2019-03-06T10:09:11.393Z,4.20
2019-03-06T10:11:56.754Z,4.93
2019-03-06T10:14:46.394Z,4.77
2019-03-06T10:17:21.337Z,4.53
2019-03-06T10:19:54.664Z,4.60
2019-03-06T10:22:21.794Z,4.37
2019-03-06T10:24:48.902Z,4.20
2019-03-06T10:27:15.988Z,3.43
2019-03-06T10:29:42.922Z,4.10
2019-03-06T10:32:09.941Z,4.50
2019-03-06T10:34:37.117Z,3.87
2019-03-06T10:39:31.253Z,4.60
2019-03-06T10:41:58.227Z,5.37
2019-03-06T10:44:29.432Z,4.47
2019-03-06T10:46:54.350Z,4.80
2019-03-06T10:49:21.485Z,5.07
2019-03-06T10:51:48.603Z,5.03
2019-03-06T10:54:15.664Z,5.00
2019-03-06T10:56:42.813Z,5.37
2019-03-06T10:59:10.145Z,5.13
2019-03-06T11:01:37.295Z,6.20
2019-03-06T11:04:23.634Z,5.10
2019-03-06T11:06:50.654Z,5.33
2019-03-06T11:09:18.418Z,5.70
2019-03-06T11:11:45.598Z,6.53
2019-03-06T11:14:12.519Z,7.33
2019-03-06T11:16:39.542Z,7.70
2019-03-06T11:19:07.139Z,6.60
2019-03-06T11:21:34.374Z,7.80
2019-03-06T11:24:01.802Z,7.23
2019-03-06T11:26:29.980Z,7.60
2019-03-06T11:28:57.239Z,7.80
2019-03-06T11:31:24.381Z,8.43
2019-03-06T11:33:51.538Z,9.77
2019-03-06T11:36:19.257Z,9.23
2019-03-06T11:38:46.393Z,10.43
2019-03-06T11:41:13.558Z,10.33
2019-03-06T11:43:40.590Z,10.27
2019-03-06T11:46:08.330Z,8.93
2019-03-06T11:48:35.375Z,9.63
2019-03-06T11:51:02.999Z,9.30
2019-03-06T11:53:30.142Z,9.83
2019-03-06T11:55:57.306Z,11.30
2019-03-06T11:58:27.556Z,10.13
2019-03-06T12:00:54.814Z,11.37
2019-03-06T12:03:22.195Z,10.63
2019-03-06T12:05:49.591Z,11.87
2019-03-06T12:08:16.923Z,11.60
2019-03-06T12:10:44.269Z,11.90
2019-03-06T12:13:12.922Z,11.67
2019-03-06T12:15:41.621Z,10.70
2019-03-06T12:18:08.690Z,12.87
2019-03-06T12:20:35.818Z,12.77
2019-03-06T12:23:04.255Z,12.93
2019-03-06T12:25:31.856Z,13.87
2019-03-06T12:27:59.831Z,12.40
2019-03-06T12:30:27.071Z,12.27
2019-03-06T12:32:54.127Z,12.90
2019-03-06T12:35:21.055Z,11.90
2019-03-06T12:37:48.191Z,11.90
2019-03-06T12:40:15.379Z,11.77
2019-03-06T12:42:42.306Z,11.93
2019-03-06T12:45:12.207Z,12.17
2019-03-06T12:47:39.486Z,11.83
2019-03-06T12:50:09.382Z,13.33
2019-03-06T12:52:36.537Z,13.23
2019-03-06T12:55:04.554Z,12.80
2019-03-06T12:57:31.669Z,14.13
2019-03-06T12:59:58.730Z,13.60
2019-03-06T13:02:25.720Z,12.93
2019-03-06T13:04:53.551Z,14.17
2019-03-06T13:07:20.647Z,13.03
2019-03-06T13:09:47.817Z,14.10
2019-03-06T13:12:14.934Z,13.83
2019-03-06T13:14:42.046Z,13.33
2019-03-06T13:17:09.194Z,13.10
2019-03-06T13:19:36.199Z,14.47
2019-03-06T13:22:11.085Z,14.63
2019-03-06T13:24:32.429Z,13.67
2019-03-06T13:26:59.534Z,14.80
2019-03-06T13:29:26.537Z,13.40
2019-03-06T13:31:53.587Z,15.40
2019-03-06T13:34:26.619Z,14.43
2019-03-06T13:36:53.632Z,14.70
2019-03-06T13:39:20.569Z,13.87
2019-03-06T13:41:47.485Z,15.07
2019-03-06T13:44:14.587Z,14.47
2019-03-06T13:46:41.722Z,13.37
2019-03-06T13:49:08.826Z,14.73
2019-03-06T13:51:35.844Z,14.53
2019-03-06T13:54:03.085Z,15.10
2019-03-06T13:56:30.105Z,15.00
2019-03-06T13:58:57.121Z,15.17
2019-03-06T14:01:24.475Z,15.07
2019-03-06T14:03:51.582Z,14.73
2019-03-06T14:06:18.713Z,15.47
2019-03-06T14:08:45.854Z,14.63
2019-03-06T14:11:13.012Z,16.40
2019-03-06T14:13:40.114Z,16.13
2019-03-06T14:16:07.258Z,14.83
2019-03-06T14:18:34.558Z,15.80
2019-03-06T14:21:01.505Z,15.67
2019-03-06T14:23:34.954Z,15.50
2019-03-06T14:25:57.676Z,15.37
2019-03-06T14:28:24.511Z,16.13
2019-03-06T14:30:51.565Z,15.67
2019-03-06T14:33:19.134Z,16.47
2019-03-06T14:35:46.336Z,15.93
2019-03-06T14:38:13.542Z,15.77
2019-03-06T14:40:41.239Z,15.13
2019-03-06T14:43:08.413Z,16.20
2019-03-06T14:45:35.738Z,16.47
2019-03-06T14:48:03.078Z,16.67
2019-03-06T14:50:30.306Z,16.60
2019-03-06T14:52:57.746Z,17.03
2019-03-06T14:55:24.878Z,17.53
2019-03-06T14:57:52.006Z,17.17
2019-03-06T15:00:19.474Z,17.77
2019-03-06T15:02:46.602Z,17.97
2019-03-06T15:05:14.393Z,18.00
2019-03-06T15:07:41.586Z,18.00
2019-03-06T15:10:10.907Z,17.17
2019-03-06T15:12:37.826Z,17.33
2019-03-06T15:15:06.050Z,17.87
2019-03-06T15:17:33.043Z,17.87
2019-03-06T15:20:00.164Z,17.90
2019-03-06T15:22:27.447Z,16.70
2019-03-06T15:24:54.463Z,17.83
2019-03-06T15:27:21.498Z,17.57
2019-03-06T15:29:48.472Z,17.10
2019-03-06T15:32:15.604Z,16.10
2019-03-06T15:34:42.622Z,15.83
2019-03-06T15:37:09.705Z,16.23
2019-03-06T15:39:45.610Z,16.47
2019-03-06T15:42:10.155Z,14.53
2019-03-06T15:44:37.435Z,14.13
2019-03-06T15:47:04.549Z,14.80
2019-03-06T15:49:31.657Z,15.80
2019-03-06T15:51:58.906Z,15.40
2019-03-06T15:54:26.036Z,15.17
2019-03-06T15:56:52.940Z,14.50
2019-03-06T15:59:20.514Z,13.57
2019-03-06T16:01:47.807Z,13.93
2019-03-06T16:04:14.997Z,13.23
2019-03-06T16:06:42.159Z,12.77
2019-03-06T16:09:09.277Z,11.23
2019-03-06T16:11:37.089Z,10.90
2019-03-06T16:14:04.256Z,11.67
2019-03-06T16:16:31.502Z,11.77
2019-03-06T16:18:58.540Z,11.87
2019-03-06T16:21:25.717Z,11.73
2019-03-06T16:23:52.636Z,11.87
2019-03-06T16:26:19.578Z,11.50
2019-03-06T16:28:46.737Z,13.07
2019-03-06T16:31:15.089Z,13.53
2019-03-06T16:33:42.107Z,12.80
2019-03-06T16:36:09.410Z,13.57
2019-03-06T16:38:36.442Z,13.17
2019-03-06T16:41:03.662Z,13.57
2019-03-06T16:43:30.822Z,12.70
2019-03-06T16:45:57.857Z,13.20
2019-03-06T16:48:24.885Z,12.87
2019-03-06T16:50:51.962Z,13.13
2019-03-06T16:53:18.990Z,13.57
2019-03-06T16:55:46.002Z,14.20
2019-03-06T16:58:13.158Z,14.90
2019-03-06T17:00:40.290Z,15.43
2019-03-06T17:03:07.562Z,14.50
2019-03-06T17:05:35.114Z,14.23
2019-03-06T17:08:03.156Z,14.87
2019-03-06T17:10:30.369Z,14.43
2019-03-06T17:12:57.552Z,13.57
2019-03-06T17:15:25.679Z,15.47
2019-03-06T17:17:52.945Z,16.27
2019-03-06T17:20:21.853Z,15.23
2019-03-06T17:22:49.293Z,14.57
2019-03-06T17:25:16.439Z,15.20
2019-03-06T17:27:43.659Z,16.40
2019-03-06T17:30:13.113Z,16.07
2019-03-06T17:32:52.608Z,16.60
2019-03-06T17:35:20.045Z,17.00
2019-03-06T17:37:47.269Z,14.53
2019-03-06T17:40:14.340Z,15.60
2019-03-06T17:42:41.395Z,15.60
2019-03-06T17:45:09.178Z,14.40
2019-03-06T17:47:36.487Z,15.07
2019-03-06T17:50:03.957Z,15.60
2019-03-06T17:52:31.229Z,15.67
2019-03-06T17:54:58.197Z,14.47
2019-03-06T17:57:25.216Z,15.63
2019-03-06T17:59:52.230Z,14.90
2019-03-06T18:02:19.619Z,14.97
2019-03-06T18:04:46.730Z,15.53
2019-03-06T18:07:14.065Z,14.50
2019-03-06T18:09:41.413Z,14.53
2019-03-06T18:12:08.522Z,15.20
2019-03-06T18:14:35.660Z,14.63
2019-03-06T18:17:02.695Z,14.20
2019-03-06T18:19:29.672Z,14.40
2019-03-06T18:21:57.118Z,13.27
2019-03-06T18:24:24.116Z,13.33
2019-03-06T18:26:51.287Z,13.80
2019-03-06T18:29:18.287Z,13.70
2019-03-06T18:31:45.556Z,14.77
2019-03-06T18:34:12.498Z,13.60
2019-03-06T18:36:39.526Z,13.77
2019-03-06T18:39:15.052Z,14.27
2019-03-06T18:41:42.895Z,16.17
2019-03-06T18:44:10.098Z,14.77
2019-03-06T18:46:37.297Z,14.27
2019-03-06T18:49:04.307Z,14.53
2019-03-06T18:51:31.237Z,15.53
2019-03-06T18:53:58.304Z,14.97
2019-03-06T18:56:31.341Z,14.10
2019-03-06T18:58:59.009Z,14.63
2019-03-06T19:01:26.295Z,13.90
2019-03-06T19:03:53.323Z,14.23
2019-03-06T19:06:20.887Z,14.27
2019-03-06T19:08:48.096Z,14.33
2019-03-06T19:11:17.256Z,14.67
2019-03-06T19:13:43.722Z,12.43
2019-03-06T19:16:10.873Z,12.80
2019-03-06T19:18:38.086Z,12.60
2019-03-06T19:21:05.358Z,12.70
2019-03-06T19:23:32.519Z,13.53
2019-03-06T19:25:59.631Z,12.60
2019-03-06T19:28:26.752Z,13.50
2019-03-06T19:30:53.818Z,12.97
2019-03-06T19:33:20.962Z,13.50
2019-03-06T19:35:49.539Z,12.67
2019-03-06T19:38:16.726Z,11.60
2019-03-06T19:40:43.991Z,11.80
2019-03-06T19:43:10.986Z,11.90
2019-03-06T19:45:38.079Z,12.13
2019-03-06T19:48:05.409Z,11.70
2019-03-06T19:50:32.332Z,12.63
2019-03-06T19:52:59.490Z,12.07
2019-03-06T19:55:26.518Z,11.30
2019-03-06T19:58:00.950Z,10.57
2019-03-06T20:00:29.390Z,11.30
2019-03-06T20:02:57.042Z,11.67
2019-03-06T20:05:27.213Z,11.30
2019-03-06T20:07:54.421Z,10.70
2019-03-06T20:10:21.650Z,11.03
2019-03-06T20:12:48.783Z,11.43
2019-03-06T20:15:16.615Z,11.03
2019-03-06T20:17:43.745Z,9.60
2019-03-06T20:20:10.936Z,10.93
2019-03-06T20:22:37.988Z,10.50
2019-03-06T20:25:05.347Z,9.23
2019-03-06T20:27:32.682Z,10.00
2019-03-06T20:29:59.716Z,9.83
2019-03-06T20:32:26.776Z,9.83
2019-03-06T20:35:15.187Z,9.30
2019-03-06T20:37:42.109Z,9.20
2019-03-06T20:40:09.248Z,9.47
2019-03-06T20:42:36.433Z,9.40
2019-03-06T20:45:04.014Z,9.57
2019-03-06T20:47:31.005Z,9.87
2019-03-06T20:49:58.038Z,10.70
2019-03-06T20:52:25.151Z,10.23
2019-03-06T20:54:52.085Z,9.47
2019-03-06T20:57:19.295Z,10.17
2019-03-06T20:59:46.329Z,10.00
2019-03-06T21:02:13.372Z,10.53
2019-03-06T21:04:40.429Z,10.47
2019-03-06T21:07:07.463Z,10.00
2019-03-06T21:09:34.595Z,10.27
2019-03-06T21:12:01.544Z,11.37
2019-03-06T21:14:28.825Z,10.87
2019-03-06T21:16:55.642Z,11.17
2019-03-06T21:19:22.708Z,11.57
2019-03-06T21:21:49.635Z,12.10
2019-03-06T21:24:16.541Z,11.97
2019-03-06T21:26:43.606Z,12.13
2019-03-06T21:29:10.514Z,12.67
2019-03-06T21:31:37.543Z,12.20
2019-03-06T21:34:04.603Z,11.57
2019-03-06T21:36:31.648Z,13.07
2019-03-06T21:38:58.656Z,13.30
2019-03-06T21:41:25.704Z,12.53
2019-03-06T21:43:53.029Z,12.77
2019-03-06T21:46:20.077Z,13.80
2019-03-06T21:48:47.246Z,14.13
2019-03-06T21:51:14.378Z,13.10
2019-03-06T21:53:41.330Z,14.07
2019-03-06T21:56:08.403Z,14.57
2019-03-06T21:58:35.334Z,15.40
2019-03-06T22:01:02.469Z,15.70
2019-03-06T22:03:29.842Z,16.40
2019-03-06T22:05:56.874Z,16.00
2019-03-06T22:08:23.874Z,16.43
2019-03-06T22:10:50.939Z,15.07
2019-03-06T22:13:17.866Z,16.67
2019-03-06T22:15:44.983Z,15.87
2019-03-06T22:18:12.050Z,17.87
2019-03-06T22:20:39.378Z,17.43
2019-03-06T22:23:06.411Z,17.57
2019-03-06T22:25:33.506Z,17.43
2019-03-06T22:28:00.586Z,19.37
2019-03-06T22:30:27.729Z,19.27
2019-03-06T22:32:54.679Z,19.03
2019-03-06T22:35:22.094Z,20.17
2019-03-06T22:37:49.195Z,20.93
2019-03-06T22:40:16.676Z,19.53
2019-03-06T22:42:43.802Z,19.67
2019-03-06T22:45:11.686Z,20.87
2019-03-06T22:47:38.673Z,20.00
2019-03-06T22:50:07.235Z,20.50
2019-03-06T22:52:34.183Z,21.20
2019-03-06T22:55:01.593Z,19.97
2019-03-06T22:57:28.615Z,21.47
2019-03-06T22:59:55.544Z,19.07
2019-03-06T23:02:23.148Z,20.43
2019-03-06T23:04:50.209Z,20.60
2019-03-06T23:07:17.217Z,21.87
2019-03-06T23:09:44.373Z,21.40
2019-03-06T23:12:11.787Z,20.50
2019-03-06T23:14:38.804Z,21.20
2019-03-06T23:17:05.893Z,21.67
2019-03-06T23:19:32.919Z,21.77
2019-03-06T23:21:59.833Z,22.07
2019-03-06T23:24:26.976Z,22.90
2019-03-06T23:26:53.922Z,22.50
2019-03-06T23:29:21.249Z,22.37
2019-03-06T23:31:50.375Z,24.20
2019-03-06T23:34:17.254Z,22.33
2019-03-06T23:36:44.171Z,24.83
2019-03-06T23:39:11.578Z,22.90
2019-03-06T23:41:38.646Z,22.93
2019-03-06T23:44:05.602Z,22.60
2019-03-06T23:46:32.842Z,24.03
2019-03-06T23:48:59.852Z,23.20
2019-03-06T23:51:32.006Z,23.17
2019-03-06T23:53:58.978Z,23.90
2019-03-06T23:56:26.041Z,24.27
2019-03-06T23:58:53.091Z,25.63
